createdAt,value
2022-08-16T00:01:14.572Z,20.05
2022-08-16T00:03:41.039Z,20.03
2022-08-16T00:06:07.684Z,20.01
2022-08-16T00:08:37.666Z,20.01
2022-08-16T00:11:07.419Z,19.95
2022-08-16T00:13:41.495Z,19.90
2022-08-16T00:17:06.471Z,19.84
2022-08-16T00:18:55.436Z,19.85
2022-08-16T00:21:22.994Z,19.82
2022-08-16T00:23:49.491Z,19.76
2022-08-16T00:26:36.271Z,19.73
2022-08-16T00:29:03.236Z,19.68
2022-08-16T00:31:47.169Z,19.60
2022-08-16T00:34:22.614Z,19.52
2022-08-16T00:37:09.024Z,19.45
2022-08-16T00:39:36.091Z,19.41
2022-08-16T00:42:02.957Z,19.34
2022-08-16T00:44:31.908Z,19.25
2022-08-16T00:47:06.513Z,19.21
2022-08-16T00:49:39.437Z,19.12
2022-08-16T00:52:30.100Z,19.11
2022-08-16T00:54:56.879Z,19.09
2022-08-16T00:57:24.027Z,19.06
2022-08-16T00:59:54.703Z,19.05
2022-08-16T01:02:31.583Z,18.98
2022-08-16T01:05:09.654Z,18.94
2022-08-16T01:07:51.310Z,18.88
2022-08-16T01:10:31.380Z,18.83
2022-08-16T01:13:07.926Z,18.78
2022-08-16T01:15:37.564Z,18.72
2022-08-16T01:18:38.850Z,18.67
2022-08-16T01:21:22.425Z,18.64
2022-08-16T01:24:01.450Z,18.64
2022-08-16T01:26:35.019Z,18.56
2022-08-16T01:29:10.008Z,18.53
2022-08-16T01:31:37.654Z,18.48
2022-08-16T01:34:23.216Z,18.40
2022-08-16T01:37:00.994Z,18.41
2022-08-16T01:39:27.959Z,18.41
2022-08-16T01:41:54.555Z,18.35
2022-08-16T01:44:22.220Z,18.33
2022-08-16T01:46:50.220Z,18.32
2022-08-16T01:49:42.784Z,18.29
2022-08-16T01:52:27.949Z,18.25
2022-08-16T01:55:24.555Z,18.24
2022-08-16T01:57:56.290Z,18.22
2022-08-16T02:00:28.889Z,18.20
2022-08-16T02:02:57.788Z,18.17
2022-08-16T02:05:24.295Z,18.15
2022-08-16T02:07:52.129Z,18.09
2022-08-16T02:10:20.373Z,18.08
2022-08-16T02:13:00.020Z,18.03
2022-08-16T02:15:29.808Z,17.98
2022-08-16T02:18:00.999Z,17.93
2022-08-16T02:20:32.604Z,17.89
2022-08-16T02:23:05.625Z,17.80
2022-08-16T02:25:51.084Z,17.76
2022-08-16T02:28:19.809Z,17.74
2022-08-16T02:30:50.895Z,17.71
2022-08-16T02:33:18.666Z,17.69
2022-08-16T02:35:54.074Z,17.69
2022-08-16T02:38:24.013Z,17.66
2022-08-16T02:40:51.415Z,17.62
2022-08-16T02:43:21.434Z,17.63
2022-08-16T02:45:53.468Z,17.61
2022-08-16T02:48:29.549Z,17.57
2022-08-16T02:51:10.709Z,17.55
2022-08-16T02:53:43.877Z,17.54
2022-08-16T02:56:15.069Z,17.52
2022-08-16T02:58:44.143Z,17.47
2022-08-16T03:01:25.537Z,17.47
2022-08-16T03:04:41.262Z,17.41
2022-08-16T03:06:48.466Z,17.38
2022-08-16T03:09:24.773Z,17.34
2022-08-16T03:11:53.688Z,17.28
2022-08-16T03:14:24.577Z,17.25
2022-08-16T03:17:00.090Z,17.19
2022-08-16T03:19:47.175Z,17.18
2022-08-16T03:22:28.245Z,17.16
2022-08-16T03:25:01.854Z,17.16
2022-08-16T03:27:32.875Z,17.14
2022-08-16T03:30:16.348Z,17.11
2022-08-16T03:32:51.549Z,17.08
2022-08-16T03:35:24.113Z,17.09
2022-08-16T03:38:03.939Z,17.03
2022-08-16T03:40:39.570Z,17.00
2022-08-16T03:43:19.620Z,17.00
2022-08-16T03:45:49.525Z,16.98
2022-08-16T03:48:36.079Z,16.91
2022-08-16T03:51:12.516Z,16.89
2022-08-16T03:53:46.142Z,16.84
2022-08-16T03:56:27.873Z,16.83
2022-08-16T03:58:58.006Z,16.83
2022-08-16T04:01:29.142Z,16.82
2022-08-16T04:03:56.648Z,16.75
2022-08-16T04:06:23.490Z,16.69
2022-08-16T04:08:50.834Z,16.67
2022-08-16T04:11:18.227Z,16.68
2022-08-16T04:14:01.590Z,16.65
2022-08-16T04:16:37.657Z,16.63
2022-08-16T04:19:32.719Z,16.63
2022-08-16T04:22:00.805Z,16.62
2022-08-16T04:24:30.754Z,16.61
2022-08-16T04:26:57.779Z,16.59
2022-08-16T04:29:25.133Z,16.56
2022-08-16T04:31:56.057Z,16.55
2022-08-16T04:34:29.359Z,16.53
2022-08-16T04:36:58.865Z,16.52
2022-08-16T04:39:46.167Z,16.51
2022-08-16T04:42:17.936Z,16.54
2022-08-16T04:44:54.420Z,16.52
2022-08-16T04:47:32.967Z,16.51
2022-08-16T04:50:09.279Z,16.49
2022-08-16T04:52:37.015Z,16.56
2022-08-16T04:55:12.048Z,16.61
2022-08-16T04:57:41.376Z,16.64
2022-08-16T05:00:30.818Z,16.71
2022-08-16T05:03:11.356Z,16.74
2022-08-16T05:05:59.087Z,16.77
2022-08-16T05:08:32.206Z,16.79
2022-08-16T05:11:32.171Z,16.87
2022-08-16T05:14:06.997Z,16.93
2022-08-16T05:16:35.452Z,17.00
2022-08-16T05:19:11.523Z,17.09
2022-08-16T05:21:42.172Z,17.17
2022-08-16T05:24:10.939Z,18.05
2022-08-16T05:26:43.078Z,19.43
2022-08-16T05:29:14.704Z,20.59
2022-08-16T05:31:53.204Z,21.47
2022-08-16T05:34:21.439Z,22.21
2022-08-16T05:36:52.944Z,22.67
2022-08-16T05:39:22.363Z,23.16
2022-08-16T05:41:51.790Z,23.47
2022-08-16T05:44:23.619Z,23.12
2022-08-16T05:46:57.236Z,22.41
2022-08-16T05:49:39.480Z,23.04
2022-08-16T05:52:13.523Z,23.22
2022-08-16T05:54:47.250Z,23.87
2022-08-16T05:57:17.157Z,24.17
2022-08-16T05:59:45.463Z,23.23
2022-08-16T06:02:13.820Z,22.21
2022-08-16T06:04:45.010Z,22.46
2022-08-16T06:07:25.214Z,23.38
2022-08-16T06:10:08.071Z,23.84
2022-08-16T06:12:37.298Z,23.67
2022-08-16T06:15:10.433Z,23.81
2022-08-16T06:17:43.145Z,23.96
2022-08-16T06:20:35.346Z,24.04
2022-08-16T06:23:17.125Z,24.03
2022-08-16T06:26:08.131Z,23.80
2022-08-16T06:28:39.238Z,23.67
2022-08-16T06:31:12.532Z,23.66
2022-08-16T06:33:44.752Z,23.55
2022-08-16T06:36:14.743Z,23.49
2022-08-16T06:38:55.878Z,23.47
2022-08-16T06:41:49.676Z,23.37
2022-08-16T06:44:27.122Z,23.31
2022-08-16T06:46:57.756Z,23.24
2022-08-16T06:49:29.203Z,23.14
2022-08-16T06:52:02.943Z,23.12
2022-08-16T06:54:35.796Z,23.16
2022-08-16T06:57:02.321Z,23.05
2022-08-16T06:59:29.662Z,23.00
2022-08-16T07:02:51.465Z,22.95
2022-08-16T07:05:15.064Z,22.97
2022-08-16T07:07:50.781Z,22.94
2022-08-16T07:10:19.023Z,22.99
2022-08-16T07:13:04.308Z,23.11
2022-08-16T07:15:37.580Z,23.16
2022-08-16T07:18:24.459Z,23.29
2022-08-16T07:20:53.467Z,23.34
2022-08-16T07:23:21.551Z,23.42
2022-08-16T07:26:07.461Z,23.53
2022-08-16T07:28:36.969Z,23.70
2022-08-16T07:31:04.976Z,23.68
2022-08-16T07:33:52.487Z,23.72
2022-08-16T07:36:22.621Z,23.77
2022-08-16T07:38:52.157Z,23.97
2022-08-16T07:41:19.475Z,24.22
2022-08-16T07:43:51.222Z,24.24
2022-08-16T07:46:38.801Z,24.38
2022-08-16T07:49:11.423Z,24.54
2022-08-16T07:51:38.974Z,24.64
2022-08-16T07:54:10.000Z,24.79
2022-08-16T07:56:42.974Z,24.76
2022-08-16T07:59:10.088Z,24.85
2022-08-16T08:01:38.188Z,24.99
2022-08-16T08:04:04.733Z,25.19
2022-08-16T08:06:36.513Z,24.99
2022-08-16T08:09:15.317Z,25.02
2022-08-16T08:12:00.941Z,25.19
2022-08-16T08:14:32.700Z,25.49
2022-08-16T08:17:01.777Z,25.66
2022-08-16T08:19:30.542Z,25.65
2022-08-16T08:22:00.662Z,25.74
2022-08-16T08:24:47.295Z,25.84
2022-08-16T08:27:23.217Z,26.02
2022-08-16T08:30:49.059Z,26.19
2022-08-16T08:32:58.423Z,26.35
2022-08-16T08:35:28.746Z,26.36
2022-08-16T08:37:57.221Z,26.44
2022-08-16T08:40:29.154Z,26.44
2022-08-16T08:43:00.766Z,26.38
2022-08-16T08:45:47.356Z,26.45
2022-08-16T08:48:32.811Z,26.62
2022-08-16T08:51:02.073Z,26.71
2022-08-16T08:53:29.968Z,26.78
2022-08-16T08:55:59.131Z,26.82
2022-08-16T08:58:34.288Z,26.87
2022-08-16T09:01:31.701Z,27.08
2022-08-16T09:04:05.906Z,27.16
2022-08-16T09:06:36.592Z,27.14
2022-08-16T09:09:16.797Z,27.17
2022-08-16T09:11:52.391Z,27.21
2022-08-16T09:14:24.243Z,27.24
2022-08-16T09:17:01.494Z,27.19
2022-08-16T09:19:32.984Z,27.03
2022-08-16T09:22:00.764Z,26.91
2022-08-16T09:24:47.153Z,27.14
2022-08-16T09:27:14.425Z,27.51
2022-08-16T09:29:45.591Z,27.69
2022-08-16T09:32:28.744Z,27.68
2022-08-16T09:34:58.386Z,27.80
2022-08-16T09:37:29.676Z,28.05
2022-08-16T09:40:00.880Z,28.05
2022-08-16T09:42:28.496Z,27.97
2022-08-16T09:45:12.045Z,28.12
2022-08-16T09:47:56.841Z,28.21
2022-08-16T09:50:26.883Z,28.50
2022-08-16T09:53:06.003Z,28.59
2022-08-16T09:55:33.804Z,28.69
2022-08-16T09:58:13.016Z,28.87
2022-08-16T10:00:57.692Z,28.87
2022-08-16T10:03:27.674Z,28.62
2022-08-16T10:05:57.457Z,28.38
2022-08-16T10:08:25.958Z,28.32
2022-08-16T10:11:11.835Z,28.39
2022-08-16T10:13:39.510Z,28.62
2022-08-16T10:19:00.247Z,29.02
2022-08-16T10:21:24.279Z,29.20
2022-08-16T10:23:54.494Z,29.04
2022-08-16T10:27:22.008Z,29.09
2022-08-16T10:29:11.523Z,29.33
2022-08-16T10:31:45.632Z,29.60
2022-08-16T10:34:30.981Z,29.56
2022-08-16T10:37:00.487Z,29.68
2022-08-16T10:39:40.681Z,29.96
2022-08-16T10:42:09.430Z,30.10
2022-08-16T10:44:36.345Z,29.93
2022-08-16T10:47:03.063Z,29.60
2022-08-16T10:49:30.097Z,29.40
2022-08-16T10:52:02.977Z,29.49
2022-08-16T10:55:40.959Z,29.71
2022-08-16T10:57:34.800Z,29.83
2022-08-16T11:00:06.432Z,30.10
2022-08-16T11:03:41.668Z,29.96
2022-08-16T11:08:35.295Z,29.58
2022-08-16T11:11:10.608Z,29.51
2022-08-16T11:17:02.270Z,29.45
2022-08-16T11:19:15.481Z,29.41
2022-08-16T11:24:42.903Z,29.44
2022-08-16T11:27:23.696Z,29.61
2022-08-16T11:29:56.508Z,29.81
2022-08-16T11:32:31.240Z,30.09
2022-08-16T11:35:10.242Z,30.45
2022-08-16T11:40:44.384Z,30.31
2022-08-16T11:43:11.604Z,30.18
2022-08-16T11:45:38.427Z,30.20
2022-08-16T11:48:06.179Z,30.30
2022-08-16T11:50:33.819Z,30.30
2022-08-16T11:53:03.737Z,30.24
2022-08-16T11:55:31.933Z,30.42
2022-08-16T11:58:00.077Z,30.55
2022-08-16T12:00:33.919Z,30.78
2022-08-16T12:03:16.438Z,30.92
2022-08-16T12:05:44.428Z,30.87
2022-08-16T12:08:12.592Z,30.75
2022-08-16T12:10:40.755Z,30.54
2022-08-16T12:13:10.473Z,30.16
2022-08-16T12:15:37.798Z,30.07
2022-08-16T12:18:05.139Z,30.13
2022-08-16T12:20:36.784Z,30.26
2022-08-16T12:23:03.896Z,30.47
2022-08-16T12:25:32.620Z,30.76
2022-08-16T12:28:02.912Z,30.72
2022-08-16T12:30:37.764Z,30.47
2022-08-16T12:33:07.348Z,30.36
2022-08-16T12:35:36.210Z,30.07
2022-08-16T12:38:38.121Z,29.89
2022-08-16T12:40:55.599Z,29.94
2022-08-16T12:43:24.800Z,29.83
2022-08-16T12:45:55.370Z,29.84
2022-08-16T12:48:46.737Z,29.68
2022-08-16T12:51:22.328Z,29.70
2022-08-16T12:53:52.911Z,29.49
2022-08-16T12:56:21.952Z,29.33
2022-08-16T12:58:53.193Z,29.32
2022-08-16T13:01:26.734Z,29.47
2022-08-16T13:04:11.659Z,29.50
2022-08-16T13:06:44.152Z,29.51
2022-08-16T13:09:21.385Z,29.63
2022-08-16T13:12:04.211Z,29.81
2022-08-16T13:14:38.045Z,29.88
2022-08-16T13:17:10.260Z,29.70
2022-08-16T13:20:05.913Z,29.50
2022-08-16T13:22:26.880Z,29.57
2022-08-16T13:24:54.964Z,29.67
2022-08-16T13:28:03.275Z,29.78
2022-08-16T13:30:11.344Z,29.75
2022-08-16T13:32:56.393Z,29.63
2022-08-16T13:35:23.980Z,29.63
2022-08-16T13:37:51.761Z,29.77
2022-08-16T13:40:20.095Z,29.78
2022-08-16T13:42:47.776Z,29.71
2022-08-16T13:45:16.426Z,29.89
2022-08-16T13:47:43.664Z,29.79
2022-08-16T13:50:11.508Z,29.69
2022-08-16T13:52:39.660Z,29.75
2022-08-16T13:55:17.660Z,29.78
2022-08-16T13:58:34.977Z,29.87
2022-08-16T14:00:31.113Z,29.80
2022-08-16T14:02:59.274Z,29.69
2022-08-16T14:05:26.875Z,29.65
2022-08-16T14:07:53.759Z,29.61
2022-08-16T14:10:21.585Z,29.25
2022-08-16T14:12:48.102Z,29.03
2022-08-16T14:15:16.014Z,28.96
2022-08-16T14:18:15.222Z,29.00
2022-08-16T14:20:29.240Z,29.02
2022-08-16T14:22:56.822Z,29.01
2022-08-16T14:25:25.253Z,28.79
2022-08-16T14:27:54.600Z,28.69
2022-08-16T14:30:22.112Z,28.66
2022-08-16T14:32:51.112Z,28.67
2022-08-16T14:35:36.763Z,28.76
2022-08-16T14:38:18.079Z,28.72
2022-08-16T14:40:51.039Z,28.70
2022-08-16T14:43:21.924Z,28.63
2022-08-16T14:45:50.363Z,28.59
2022-08-16T14:48:25.129Z,28.75
2022-08-16T14:50:52.676Z,28.64
2022-08-16T14:53:20.503Z,28.55
2022-08-16T14:55:48.444Z,28.48
2022-08-16T14:58:19.105Z,28.53
2022-08-16T15:00:47.841Z,28.55
2022-08-16T15:03:18.286Z,28.59
2022-08-16T15:05:48.034Z,28.70
2022-08-16T15:08:17.068Z,28.75
2022-08-16T15:10:46.071Z,28.64
2022-08-16T15:13:13.714Z,28.49
2022-08-16T15:15:43.273Z,28.54
2022-08-16T15:18:11.937Z,28.69
2022-08-16T15:20:41.303Z,28.72
2022-08-16T15:23:10.036Z,28.69
2022-08-16T15:25:41.392Z,28.76
2022-08-16T15:28:23.932Z,28.75
2022-08-16T15:31:00.862Z,28.92
2022-08-16T15:33:29.547Z,28.91
2022-08-16T15:35:59.334Z,28.93
2022-08-16T15:38:43.556Z,28.98
2022-08-16T15:41:52.112Z,28.88
2022-08-16T15:44:23.788Z,28.75
2022-08-16T15:46:56.437Z,28.73
2022-08-16T15:49:37.253Z,28.71
2022-08-16T15:52:29.211Z,28.67
2022-08-16T15:54:57.096Z,28.61
2022-08-16T15:57:25.275Z,28.40
2022-08-16T15:59:56.334Z,28.35
2022-08-16T16:02:38.238Z,28.29
2022-08-16T16:05:09.523Z,28.28
2022-08-16T16:07:37.431Z,28.24
2022-08-16T16:10:13.252Z,28.24
2022-08-16T16:12:50.219Z,28.17
2022-08-16T16:15:20.270Z,28.10
2022-08-16T16:17:50.990Z,28.23
2022-08-16T16:20:20.445Z,28.28
2022-08-16T16:22:49.425Z,28.22
2022-08-16T16:25:17.068Z,28.24
2022-08-16T16:27:45.348Z,28.19
2022-08-16T16:30:38.056Z,28.19
2022-08-16T16:33:01.695Z,28.23
2022-08-16T16:35:30.754Z,28.32
2022-08-16T16:37:59.605Z,28.48
2022-08-16T16:40:33.046Z,28.41
2022-08-16T16:43:00.524Z,28.44
2022-08-16T16:45:34.749Z,28.53
2022-08-16T16:48:12.731Z,28.53
2022-08-16T16:50:41.004Z,28.53
2022-08-16T16:53:16.815Z,28.32
2022-08-16T16:55:44.397Z,28.23
2022-08-16T16:58:37.733Z,28.18
2022-08-16T17:01:05.064Z,28.16
2022-08-16T17:03:32.270Z,28.08
2022-08-16T17:06:03.343Z,27.90
2022-08-16T17:08:37.684Z,27.80
2022-08-16T17:11:07.914Z,27.64
2022-08-16T17:13:34.656Z,27.58
2022-08-16T17:16:01.667Z,27.55
2022-08-16T17:19:02.156Z,27.55
2022-08-16T17:21:16.500Z,27.52
2022-08-16T17:23:58.561Z,27.44
2022-08-16T17:26:30.248Z,27.39
2022-08-16T17:29:02.716Z,27.38
2022-08-16T17:31:43.309Z,27.37
2022-08-16T17:34:30.522Z,27.36
2022-08-16T17:37:04.962Z,27.20
2022-08-16T17:39:58.144Z,27.15
2022-08-16T17:42:25.633Z,27.06
2022-08-16T17:44:52.188Z,26.97
2022-08-16T17:47:18.669Z,26.92
2022-08-16T17:49:45.191Z,26.82
2022-08-16T17:52:12.684Z,26.76
2022-08-16T17:54:39.418Z,26.71
2022-08-16T17:57:06.600Z,26.69
2022-08-16T17:59:35.523Z,26.60
2022-08-16T18:02:14.422Z,26.54
2022-08-16T18:04:55.504Z,26.51
2022-08-16T18:07:22.074Z,26.44
2022-08-16T18:09:48.537Z,26.36
2022-08-16T18:12:44.489Z,26.27
2022-08-16T18:15:12.996Z,26.13
2022-08-16T18:17:39.919Z,26.07
2022-08-16T18:20:27.943Z,26.06
2022-08-16T18:22:54.506Z,25.99
2022-08-16T18:25:21.227Z,25.96
2022-08-16T18:27:47.668Z,25.87
2022-08-16T18:30:17.529Z,25.81
2022-08-16T18:32:49.571Z,25.68
2022-08-16T18:35:18.068Z,25.59
2022-08-16T18:37:44.584Z,25.48
2022-08-16T18:40:12.364Z,25.36
2022-08-16T18:42:39.069Z,25.26
2022-08-16T18:45:06.320Z,25.20
2022-08-16T18:47:32.908Z,25.13
2022-08-16T18:50:00.358Z,25.06
2022-08-16T18:52:26.768Z,25.01
2022-08-16T18:55:01.901Z,24.95
2022-08-16T18:57:29.814Z,24.86
2022-08-16T18:59:56.240Z,24.80
2022-08-16T19:02:57.644Z,24.77
2022-08-16T19:05:16.852Z,24.74
2022-08-16T19:07:43.305Z,24.67
2022-08-16T19:10:10.092Z,24.61
2022-08-16T19:12:42.145Z,24.51
2022-08-16T19:15:13.323Z,24.48
2022-08-16T19:17:41.270Z,24.46
2022-08-16T19:20:10.793Z,24.38
2022-08-16T19:23:01.496Z,24.29
2022-08-16T19:25:28.419Z,24.23
2022-08-16T19:28:50.093Z,24.15
2022-08-16T19:31:01.594Z,24.14
2022-08-16T19:33:28.186Z,24.10
2022-08-16T19:35:54.912Z,24.05
2022-08-16T19:38:21.600Z,24.01
2022-08-16T19:40:48.188Z,23.95
2022-08-16T19:43:14.685Z,23.91
2022-08-16T19:45:45.852Z,23.88
2022-08-16T19:48:12.623Z,23.84
2022-08-16T19:50:39.096Z,23.79
2022-08-16T19:53:17.472Z,23.73
2022-08-16T19:55:47.232Z,23.68
2022-08-16T19:58:15.883Z,23.65
2022-08-16T20:00:44.930Z,23.58
2022-08-16T20:03:22.477Z,23.57
2022-08-16T20:05:51.459Z,23.51
2022-08-16T20:08:18.651Z,23.42
2022-08-16T20:10:46.850Z,23.40
2022-08-16T20:13:16.317Z,23.37
2022-08-16T20:15:43.421Z,23.34
2022-08-16T20:18:17.212Z,23.28
2022-08-16T20:20:52.841Z,23.24
2022-08-16T20:23:24.607Z,23.19
2022-08-16T20:25:55.391Z,23.15
2022-08-16T20:28:40.699Z,23.14
2022-08-16T20:31:08.936Z,23.09
2022-08-16T20:33:35.375Z,23.04
2022-08-16T20:36:01.805Z,23.03
2022-08-16T20:38:28.240Z,23.00
2022-08-16T20:40:54.942Z,22.94
2022-08-16T20:43:21.561Z,22.87
2022-08-16T20:45:48.310Z,22.84
2022-08-16T20:48:15.241Z,22.81
2022-08-16T20:50:41.879Z,22.79
2022-08-16T20:53:08.940Z,22.77
2022-08-16T20:55:36.822Z,22.73
2022-08-16T20:58:03.678Z,22.70
2022-08-16T21:00:30.914Z,22.68
2022-08-16T21:02:57.381Z,22.62
2022-08-16T21:05:27.786Z,22.62
2022-08-16T21:07:57.404Z,22.58
2022-08-16T21:10:24.438Z,22.55
2022-08-16T21:12:56.986Z,22.56
2022-08-16T21:15:26.261Z,22.52
2022-08-16T21:17:53.656Z,22.51
2022-08-16T21:20:22.545Z,22.50
2022-08-16T21:22:54.545Z,22.48
2022-08-16T21:25:23.218Z,22.46
2022-08-16T21:28:39.995Z,22.43
2022-08-16T21:30:38.364Z,22.37
2022-08-16T21:33:07.936Z,22.31
2022-08-16T21:35:35.057Z,22.26
2022-08-16T21:38:29.357Z,22.23
2022-08-16T21:40:48.223Z,22.17
2022-08-16T21:43:20.858Z,22.11
2022-08-16T21:45:47.700Z,22.07
2022-08-16T21:48:14.441Z,22.02
2022-08-16T21:50:42.583Z,21.94
2022-08-16T21:53:08.969Z,21.87
2022-08-16T21:55:36.941Z,21.85
2022-08-16T21:58:04.723Z,21.80
2022-08-16T22:00:31.665Z,21.75
2022-08-16T22:03:02.154Z,21.74
2022-08-16T22:05:29.392Z,21.71
2022-08-16T22:08:00.871Z,21.66
2022-08-16T22:11:05.590Z,21.60
2022-08-16T22:13:25.774Z,21.59
2022-08-16T22:15:53.414Z,21.55
2022-08-16T22:18:20.596Z,21.51
2022-08-16T22:20:48.143Z,21.49
2022-08-16T22:23:18.847Z,21.48
2022-08-16T22:25:47.047Z,21.45
2022-08-16T22:28:15.031Z,21.42
2022-08-16T22:30:42.229Z,21.39
2022-08-16T22:33:20.865Z,21.35
2022-08-16T22:35:50.993Z,21.30
2022-08-16T22:38:53.943Z,21.25
2022-08-16T22:41:05.819Z,21.21
2022-08-16T22:43:32.732Z,21.21
2022-08-16T22:45:59.564Z,21.17
2022-08-16T22:48:26.095Z,21.19
2022-08-16T22:50:52.886Z,21.13
2022-08-16T22:53:19.454Z,21.11
2022-08-16T22:55:46.364Z,21.08
2022-08-16T22:58:13.832Z,21.07
2022-08-16T23:00:40.809Z,21.02
2022-08-16T23:03:16.213Z,21.01
2022-08-16T23:05:55.064Z,20.99
2022-08-16T23:08:32.310Z,20.95
2022-08-16T23:11:06.056Z,20.91
2022-08-16T23:13:32.876Z,20.87
2022-08-16T23:16:03.284Z,20.83
2022-08-16T23:18:38.746Z,20.82
2022-08-16T23:21:08.213Z,20.75
2022-08-16T23:23:35.000Z,20.69
2022-08-16T23:26:01.616Z,20.68
2022-08-16T23:28:30.690Z,20.65
2022-08-16T23:30:58.412Z,20.62
2022-08-16T23:33:26.910Z,20.59
2022-08-16T23:35:59.188Z,20.58
2022-08-16T23:38:37.778Z,20.52
2022-08-16T23:41:09.442Z,20.50
2022-08-16T23:43:41.608Z,20.47
2022-08-16T23:46:11.634Z,20.44
2022-08-16T23:49:59.494Z,20.43
2022-08-16T23:51:24.546Z,20.40
2022-08-16T23:53:51.012Z,20.37
2022-08-16T23:56:20.479Z,20.35
2022-08-16T23:58:54.568Z,20.29
